createdAt,value
2019-03-28T00:01:35.737Z,16.40
2019-03-28T00:04:04.079Z,20.47
2019-03-28T00:06:31.941Z,21.70
2019-03-28T00:08:59.916Z,23.97
2019-03-28T00:11:27.809Z,25.70
2019-03-28T00:13:55.664Z,22.33
2019-03-28T00:16:23.450Z,24.60
2019-03-28T00:18:51.259Z,25.07
2019-03-28T00:21:19.097Z,21.83
2019-03-28T00:24:01.211Z,22.63
2019-03-28T00:26:30.477Z,20.37
2019-03-28T00:28:58.497Z,19.73
2019-03-28T00:31:26.330Z,22.33
2019-03-28T00:33:54.173Z,21.43
2019-03-28T00:36:22.010Z,22.60
2019-03-28T00:38:50.172Z,27.90
2019-03-28T00:41:18.257Z,26.97
2019-03-28T00:43:46.072Z,23.83
2019-03-28T00:46:13.890Z,20.50
2019-03-28T00:48:41.844Z,22.57
2019-03-28T00:51:09.684Z,21.50
2019-03-28T00:53:37.534Z,24.77
2019-03-28T00:56:05.381Z,28.53
2019-03-28T00:58:33.246Z,23.30
2019-03-28T01:01:01.067Z,20.83
2019-03-28T01:03:28.967Z,24.10
2019-03-28T01:05:56.778Z,25.40
2019-03-28T01:08:24.638Z,23.63
2019-03-28T01:10:52.462Z,28.93
2019-03-28T01:13:20.306Z,23.57
2019-03-28T01:15:48.156Z,27.20
2019-03-28T01:18:16.001Z,22.23
2019-03-28T01:20:43.780Z,22.40
2019-03-28T01:23:11.637Z,23.03
2019-03-28T01:25:39.445Z,23.27
2019-03-28T01:28:07.216Z,29.33
2019-03-28T01:30:35.085Z,23.03
2019-03-28T01:33:02.877Z,21.90
2019-03-28T01:35:30.673Z,26.07
2019-03-28T01:37:58.527Z,25.83
2019-03-28T01:40:26.401Z,20.73
2019-03-28T01:42:54.238Z,20.63
2019-03-28T01:45:22.039Z,23.00
2019-03-28T01:47:49.822Z,22.13
2019-03-28T01:50:17.728Z,21.73
2019-03-28T01:52:45.526Z,21.50
2019-03-28T01:55:13.350Z,23.23
2019-03-28T01:57:41.193Z,25.53
2019-03-28T02:00:10.093Z,22.43
2019-03-28T02:02:37.905Z,26.30
2019-03-28T02:05:06.332Z,22.27
2019-03-28T02:07:34.095Z,23.90
2019-03-28T02:10:01.931Z,23.90
2019-03-28T02:12:29.776Z,18.93
2019-03-28T02:14:57.678Z,23.40
2019-03-28T02:17:25.558Z,20.70
2019-03-28T02:19:53.381Z,21.50
2019-03-28T02:22:21.180Z,20.40
2019-03-28T02:24:49.051Z,23.67
2019-03-28T02:27:23.979Z,21.43
2019-03-28T02:29:46.669Z,22.07
2019-03-28T02:32:14.569Z,24.40
2019-03-28T02:34:42.513Z,24.13
2019-03-28T02:37:10.456Z,21.23
2019-03-28T02:39:38.297Z,22.57
2019-03-28T02:42:06.169Z,21.07
2019-03-28T02:44:34.072Z,18.13
2019-03-28T02:47:01.905Z,17.07
2019-03-28T02:49:29.867Z,20.77
2019-03-28T02:51:57.710Z,23.87
2019-03-28T02:54:25.555Z,23.93
2019-03-28T02:56:53.552Z,22.10
2019-03-28T02:59:21.380Z,18.67
2019-03-28T03:01:49.177Z,21.80
2019-03-28T03:04:17.120Z,22.67
2019-03-28T03:06:44.996Z,23.63
2019-03-28T03:09:12.857Z,22.13
2019-03-28T03:11:42.715Z,20.47
2019-03-28T03:14:11.881Z,18.63
2019-03-28T03:16:40.061Z,18.17
2019-03-28T03:19:07.901Z,16.70
2019-03-28T03:21:36.070Z,18.30
2019-03-28T03:24:04.152Z,22.80
2019-03-28T03:26:32.043Z,19.20
2019-03-28T03:28:59.886Z,18.90
2019-03-28T03:31:27.705Z,17.90
2019-03-28T03:33:55.588Z,18.17
2019-03-28T03:36:23.458Z,19.97
2019-03-28T03:38:51.298Z,18.33
2019-03-28T03:41:19.169Z,18.17
2019-03-28T03:43:46.960Z,22.13
2019-03-28T03:46:14.781Z,17.57
2019-03-28T03:48:42.744Z,17.20
2019-03-28T03:51:10.626Z,17.40
2019-03-28T03:53:38.461Z,20.73
2019-03-28T03:56:06.432Z,21.50
2019-03-28T03:58:34.245Z,19.17
2019-03-28T04:01:02.121Z,16.83
2019-03-28T04:03:30.034Z,21.57
2019-03-28T04:05:57.903Z,28.13
2019-03-28T04:08:26.995Z,23.63
2019-03-28T04:10:55.220Z,22.70
2019-03-28T04:13:23.016Z,25.97
2019-03-28T04:15:51.031Z,18.93
2019-03-28T04:18:22.086Z,20.33
2019-03-28T04:20:48.684Z,20.23
2019-03-28T04:23:16.553Z,18.60
2019-03-28T04:25:44.367Z,23.87
2019-03-28T04:28:12.769Z,21.80
2019-03-28T04:30:40.871Z,19.07
2019-03-28T04:33:08.734Z,21.40
2019-03-28T04:35:36.559Z,18.03
2019-03-28T04:38:04.373Z,17.43
2019-03-28T04:40:32.247Z,20.50
2019-03-28T04:43:00.114Z,23.57
2019-03-28T04:45:28.035Z,23.67
2019-03-28T04:47:55.984Z,19.57
2019-03-28T04:50:23.800Z,20.97
2019-03-28T04:52:53.002Z,19.10
2019-03-28T04:55:21.390Z,18.83
2019-03-28T04:57:49.367Z,17.83
2019-03-28T05:00:17.532Z,19.50
2019-03-28T05:02:46.116Z,19.50
2019-03-28T05:05:14.241Z,18.93
2019-03-28T05:07:42.402Z,22.63
2019-03-28T05:10:11.207Z,23.47
2019-03-28T05:12:39.062Z,28.00
2019-03-28T05:15:08.759Z,29.23
2019-03-28T05:17:36.756Z,34.07
2019-03-28T05:20:05.501Z,29.40
2019-03-28T05:22:33.335Z,24.67
2019-03-28T05:25:01.199Z,25.30
2019-03-28T05:27:29.063Z,26.33
2019-03-28T05:29:56.864Z,24.30
2019-03-28T05:32:24.684Z,25.40
2019-03-28T05:34:52.547Z,24.67
2019-03-28T05:37:20.360Z,21.80
2019-03-28T05:39:48.234Z,21.67
2019-03-28T05:42:16.187Z,24.37
2019-03-28T05:44:44.031Z,25.10
2019-03-28T05:47:11.839Z,26.40
2019-03-28T05:49:39.710Z,32.63
2019-03-28T05:52:07.569Z,29.30
2019-03-28T05:54:35.448Z,24.40
2019-03-28T05:57:03.309Z,26.07
2019-03-28T05:59:31.152Z,31.47
2019-03-28T06:01:59.004Z,23.93
2019-03-28T06:04:26.870Z,27.23
2019-03-28T06:06:54.788Z,23.10
2019-03-28T06:09:22.640Z,25.13
2019-03-28T06:11:52.855Z,22.20
2019-03-28T06:14:20.278Z,25.37
2019-03-28T06:16:48.110Z,26.60
2019-03-28T06:19:16.002Z,23.63
2019-03-28T06:21:43.858Z,20.63
2019-03-28T06:24:11.761Z,20.57
2019-03-28T06:26:39.603Z,24.33
2019-03-28T06:29:08.697Z,26.33
2019-03-28T06:31:36.888Z,37.53
2019-03-28T06:34:04.772Z,25.57
2019-03-28T06:36:32.612Z,22.33
2019-03-28T06:39:00.472Z,33.83
2019-03-28T06:41:28.406Z,31.37
2019-03-28T06:43:56.188Z,26.13
2019-03-28T06:46:24.077Z,21.33
2019-03-28T06:48:51.962Z,20.43
2019-03-28T06:51:19.772Z,21.83
2019-03-28T06:53:47.670Z,20.23
2019-03-28T06:56:15.469Z,19.87
2019-03-28T06:58:43.334Z,19.77
2019-03-28T07:01:11.241Z,18.50
2019-03-28T07:03:39.050Z,16.50
2019-03-28T07:06:06.914Z,21.93
2019-03-28T07:08:34.775Z,18.53
2019-03-28T07:11:02.791Z,18.87
2019-03-28T07:13:31.212Z,19.83
2019-03-28T07:15:59.068Z,24.17
2019-03-28T07:18:26.904Z,17.47
2019-03-28T07:20:54.768Z,15.23
2019-03-28T07:23:22.671Z,20.50
2019-03-28T07:25:50.487Z,17.97
2019-03-28T07:28:18.317Z,17.10
2019-03-28T07:30:46.201Z,19.87
2019-03-28T07:33:14.063Z,18.03
2019-03-28T07:35:42.038Z,15.33
2019-03-28T07:38:10.143Z,18.40
2019-03-28T07:40:37.963Z,18.80
2019-03-28T07:43:05.859Z,14.83
2019-03-28T07:45:34.662Z,22.20
2019-03-28T07:48:02.699Z,18.70
2019-03-28T07:50:33.366Z,22.90
2019-03-28T07:53:00.343Z,15.57
2019-03-28T07:55:28.234Z,16.57
2019-03-28T07:57:56.070Z,19.57
2019-03-28T08:00:23.947Z,16.20
2019-03-28T08:02:51.760Z,20.40
2019-03-28T08:05:20.219Z,18.07
2019-03-28T08:07:48.089Z,18.57
2019-03-28T08:10:16.144Z,21.37
2019-03-28T08:12:44.018Z,14.20
2019-03-28T08:15:12.136Z,14.20
2019-03-28T08:17:39.975Z,17.97
2019-03-28T08:20:08.877Z,13.47
2019-03-28T08:22:36.677Z,14.70
2019-03-28T08:25:09.554Z,18.60
2019-03-28T08:27:34.764Z,17.20
2019-03-28T08:30:02.925Z,15.77
2019-03-28T08:32:30.840Z,11.63
2019-03-28T08:34:58.709Z,18.47
2019-03-28T08:37:27.422Z,15.50
2019-03-28T08:39:55.769Z,16.97
2019-03-28T08:42:24.156Z,16.63
2019-03-28T08:44:51.976Z,12.60
2019-03-28T08:47:19.822Z,13.80
2019-03-28T08:49:47.679Z,12.50
2019-03-28T08:52:15.476Z,13.43
2019-03-28T08:54:43.347Z,11.60
2019-03-28T08:57:11.172Z,17.83
2019-03-28T08:59:38.984Z,14.40
2019-03-28T09:02:07.290Z,10.43
2019-03-28T09:04:35.149Z,10.93
2019-03-28T09:07:03.346Z,18.03
2019-03-28T09:09:31.158Z,13.93
2019-03-28T09:11:58.989Z,16.23
2019-03-28T09:14:26.821Z,16.60
2019-03-28T09:16:54.621Z,16.13
2019-03-28T09:19:22.503Z,11.57
2019-03-28T09:21:50.315Z,10.90
2019-03-28T09:24:18.192Z,13.10
2019-03-28T09:26:46.047Z,14.67
2019-03-28T09:29:13.887Z,12.17
2019-03-28T09:31:41.805Z,13.43
2019-03-28T09:34:09.641Z,14.27
2019-03-28T09:36:40.216Z,20.97
2019-03-28T09:39:08.986Z,12.67
2019-03-28T09:41:36.803Z,15.37
2019-03-28T09:44:04.614Z,15.70
2019-03-28T09:46:32.463Z,15.30
2019-03-28T09:49:00.470Z,10.53
2019-03-28T09:51:28.261Z,15.23
2019-03-28T09:53:56.120Z,16.17
2019-03-28T09:56:24.034Z,11.63
2019-03-28T09:58:51.831Z,11.60
2019-03-28T10:01:19.770Z,13.40
2019-03-28T10:03:47.654Z,11.30
2019-03-28T10:06:15.555Z,14.53
2019-03-28T10:08:43.569Z,11.17
2019-03-28T10:11:11.374Z,11.47
2019-03-28T10:13:39.208Z,11.00
2019-03-28T10:16:07.101Z,11.67
2019-03-28T10:18:34.933Z,14.03
2019-03-28T10:21:02.779Z,15.40
2019-03-28T10:23:30.576Z,7.83
2019-03-28T10:25:58.437Z,12.93
2019-03-28T10:28:26.288Z,13.50
2019-03-28T10:30:54.148Z,17.47
2019-03-28T10:33:22.020Z,13.67
2019-03-28T10:35:49.855Z,8.23
2019-03-28T10:38:18.847Z,8.73
2019-03-28T10:40:47.126Z,8.13
2019-03-28T10:43:15.010Z,7.43
2019-03-28T10:45:42.834Z,6.07
2019-03-28T10:48:10.673Z,7.57
2019-03-28T10:50:45.551Z,7.67
2019-03-28T10:53:08.184Z,9.40
2019-03-28T10:55:36.274Z,14.07
2019-03-28T10:58:17.779Z,15.60
2019-03-28T11:00:34.756Z,8.53
2019-03-28T11:03:02.757Z,11.57
2019-03-28T11:05:30.733Z,9.07
2019-03-28T11:07:58.719Z,11.93
2019-03-28T11:10:27.762Z,9.40
2019-03-28T11:12:57.855Z,7.33
2019-03-28T11:15:26.962Z,11.77
2019-03-28T11:17:54.779Z,12.20
2019-03-28T11:20:25.636Z,11.33
2019-03-28T11:22:53.723Z,10.33
2019-03-28T11:25:21.597Z,12.43
2019-03-28T11:27:49.850Z,7.90
2019-03-28T11:30:18.571Z,13.27
2019-03-28T11:32:46.602Z,11.43
2019-03-28T11:35:14.468Z,13.57
2019-03-28T11:37:42.254Z,15.30
2019-03-28T11:40:10.506Z,13.30
2019-03-28T11:42:38.376Z,13.07
2019-03-28T11:45:09.229Z,9.43
2019-03-28T11:47:36.998Z,6.70
2019-03-28T11:50:05.745Z,13.00
2019-03-28T11:52:34.762Z,10.37
2019-03-28T11:55:02.674Z,15.47
2019-03-28T11:57:30.487Z,10.43
2019-03-28T11:59:58.319Z,10.63
2019-03-28T12:02:26.115Z,15.30
2019-03-28T12:04:53.974Z,11.70
2019-03-28T12:07:21.910Z,11.07
2019-03-28T12:09:49.840Z,12.77
2019-03-28T12:12:17.664Z,9.43
2019-03-28T12:14:45.524Z,8.67
2019-03-28T12:17:13.351Z,8.63
2019-03-28T12:19:41.179Z,9.83
2019-03-28T12:22:08.974Z,10.47
2019-03-28T12:24:36.823Z,13.13
2019-03-28T12:27:04.704Z,6.20
2019-03-28T12:29:35.707Z,10.07
2019-03-28T12:32:13.408Z,13.00
2019-03-28T12:34:32.010Z,8.30
2019-03-28T12:36:59.849Z,10.77
2019-03-28T12:39:27.635Z,11.33
2019-03-28T12:41:55.496Z,8.23
2019-03-28T12:44:23.324Z,7.77
2019-03-28T12:46:51.174Z,10.07
2019-03-28T12:49:18.998Z,12.93
2019-03-28T12:51:46.794Z,13.23
2019-03-28T12:54:14.638Z,10.30
2019-03-28T12:56:42.523Z,8.27
2019-03-28T12:59:10.366Z,11.93
2019-03-28T13:01:38.203Z,13.23
2019-03-28T13:04:05.995Z,11.20
2019-03-28T13:06:33.823Z,14.07
2019-03-28T13:09:01.668Z,8.57
2019-03-28T13:11:29.516Z,14.00
2019-03-28T13:13:57.316Z,11.70
2019-03-28T13:16:25.224Z,10.80
2019-03-28T13:18:53.276Z,8.90
2019-03-28T13:21:24.070Z,7.63
2019-03-28T13:23:52.109Z,9.40
2019-03-28T13:26:19.931Z,11.97
2019-03-28T13:28:47.715Z,6.57
2019-03-28T13:31:15.526Z,7.77
2019-03-28T13:33:43.478Z,9.03
2019-03-28T13:36:11.252Z,4.83
2019-03-28T13:38:39.089Z,4.77
2019-03-28T13:41:06.982Z,5.53
2019-03-28T13:43:34.793Z,6.53
2019-03-28T13:46:02.601Z,5.87
2019-03-28T13:48:30.470Z,11.00
2019-03-28T13:50:58.311Z,4.00
2019-03-28T13:53:38.657Z,5.47
2019-03-28T13:55:55.819Z,6.50
2019-03-28T13:58:23.614Z,7.10
2019-03-28T14:00:54.410Z,6.97
2019-03-28T14:03:21.117Z,8.40
2019-03-28T14:05:48.948Z,8.03
2019-03-28T14:08:16.837Z,6.67
2019-03-28T14:10:44.752Z,8.10
2019-03-28T14:13:12.590Z,9.37
2019-03-28T14:15:40.418Z,5.67
2019-03-28T14:18:08.197Z,6.60
2019-03-28T14:20:36.072Z,4.97
2019-03-28T14:23:03.891Z,3.53
2019-03-28T14:25:31.699Z,7.50
2019-03-28T14:27:59.508Z,6.43
2019-03-28T14:30:27.345Z,5.33
2019-03-28T14:33:09.993Z,5.63
2019-03-28T14:35:24.996Z,4.10
2019-03-28T14:37:52.771Z,5.00
2019-03-28T14:40:20.751Z,4.13
2019-03-28T14:42:48.583Z,2.87
2019-03-28T14:45:16.458Z,4.20
2019-03-28T14:47:44.214Z,3.43
2019-03-28T14:50:12.355Z,1.93
2019-03-28T14:52:43.269Z,3.83
2019-03-28T14:55:11.115Z,2.87
2019-03-28T14:57:40.087Z,2.43
2019-03-28T15:00:15.778Z,2.93
2019-03-28T15:02:43.668Z,1.90
2019-03-28T15:05:11.610Z,6.03
2019-03-28T15:07:40.375Z,4.83
2019-03-28T15:10:08.343Z,4.17
2019-03-28T15:12:36.189Z,5.37
2019-03-28T15:15:04.286Z,5.87
2019-03-28T15:17:32.101Z,3.17
2019-03-28T15:19:59.920Z,4.93
2019-03-28T15:22:27.680Z,5.43
2019-03-28T15:24:55.535Z,4.17
2019-03-28T15:27:23.383Z,3.23
2019-03-28T15:29:51.187Z,3.63
2019-03-28T15:32:19.024Z,3.10
2019-03-28T15:34:46.828Z,8.97
2019-03-28T15:37:14.612Z,2.97
2019-03-28T15:39:42.399Z,3.73
2019-03-28T15:42:10.201Z,4.47
2019-03-28T15:44:39.470Z,2.67
2019-03-28T15:47:07.352Z,4.33
2019-03-28T15:49:35.173Z,3.77
2019-03-28T15:52:03.376Z,2.07
2019-03-28T15:54:31.348Z,2.47
2019-03-28T15:56:59.256Z,1.47
2019-03-28T15:59:27.100Z,2.50
2019-03-28T16:01:54.894Z,3.47
2019-03-28T16:04:24.816Z,2.27
2019-03-28T16:06:52.447Z,3.43
2019-03-28T16:09:20.530Z,1.57
2019-03-28T16:12:01.671Z,2.90
2019-03-28T16:14:18.100Z,2.57
2019-03-28T16:16:45.889Z,2.50
2019-03-28T16:19:13.656Z,2.30
2019-03-28T16:21:41.476Z,2.70
2019-03-28T16:24:09.251Z,1.30
2019-03-28T16:26:37.040Z,2.10
2019-03-28T16:29:04.885Z,3.07
2019-03-28T16:31:32.693Z,4.17
2019-03-28T16:34:06.922Z,2.73
2019-03-28T16:36:30.197Z,4.33
2019-03-28T16:38:57.963Z,5.53
2019-03-28T16:41:25.758Z,6.50
2019-03-28T16:43:53.548Z,4.97
2019-03-28T16:46:21.366Z,3.47
2019-03-28T16:48:49.176Z,4.13
2019-03-28T16:51:17.662Z,5.77
2019-03-28T16:53:45.504Z,4.87
2019-03-28T16:56:13.303Z,2.40
2019-03-28T16:58:43.769Z,2.93
2019-03-28T17:01:11.741Z,5.43
2019-03-28T17:03:39.553Z,3.47
2019-03-28T17:06:08.036Z,3.60
2019-03-28T17:08:38.727Z,3.30
2019-03-28T17:11:06.553Z,3.30
2019-03-28T17:13:34.323Z,4.53
2019-03-28T17:16:02.065Z,3.30
2019-03-28T17:18:31.264Z,2.63
2019-03-28T17:20:59.531Z,2.63
2019-03-28T17:23:28.336Z,2.13
2019-03-28T17:25:56.143Z,2.90
2019-03-28T17:28:23.944Z,4.40
2019-03-28T17:30:51.825Z,2.37
2019-03-28T17:33:20.898Z,2.50
2019-03-28T17:35:49.016Z,1.73
2019-03-28T17:38:16.853Z,2.40
2019-03-28T17:40:44.686Z,2.97
2019-03-28T17:43:12.591Z,3.97
2019-03-28T17:45:40.523Z,3.27
2019-03-28T17:48:08.531Z,2.87
2019-03-28T17:50:36.299Z,3.77
2019-03-28T17:53:04.225Z,2.37
2019-03-28T17:55:32.385Z,1.97
2019-03-28T17:58:00.227Z,2.43
2019-03-28T18:00:28.359Z,2.47
2019-03-28T18:03:08.390Z,4.30
2019-03-28T18:05:26.085Z,3.43
2019-03-28T18:07:53.984Z,5.73
2019-03-28T18:10:21.955Z,6.07
2019-03-28T18:12:49.762Z,5.37
2019-03-28T18:15:17.601Z,6.00
2019-03-28T18:17:45.414Z,4.57
2019-03-28T18:20:13.685Z,5.27
2019-03-28T18:22:41.577Z,6.73
2019-03-28T18:25:10.001Z,5.77
2019-03-28T18:27:37.777Z,6.47
2019-03-28T18:30:06.174Z,6.33
2019-03-28T18:32:33.967Z,3.73
2019-03-28T18:35:05.545Z,4.60
2019-03-28T18:37:31.441Z,3.47
2019-03-28T18:39:59.271Z,3.60
2019-03-28T18:42:27.081Z,3.67
2019-03-28T18:44:54.872Z,3.57
2019-03-28T18:47:22.651Z,3.50
2019-03-28T18:49:50.613Z,4.93
2019-03-28T18:52:18.557Z,3.83
2019-03-28T18:54:46.397Z,5.37
2019-03-28T18:57:14.187Z,3.83
2019-03-28T18:59:41.966Z,6.30
2019-03-28T19:02:09.765Z,6.53
2019-03-28T19:04:37.584Z,5.80
2019-03-28T19:07:05.441Z,7.23
2019-03-28T19:09:33.239Z,6.30
2019-03-28T19:12:01.061Z,5.57
2019-03-28T19:14:28.866Z,6.93
2019-03-28T19:16:56.669Z,6.00
2019-03-28T19:19:38.375Z,6.17
2019-03-28T19:21:55.934Z,6.47
2019-03-28T19:24:24.191Z,7.40
2019-03-28T19:26:52.846Z,6.33
2019-03-28T19:29:20.729Z,4.30
2019-03-28T19:31:48.594Z,4.40
2019-03-28T19:34:16.366Z,4.73
2019-03-28T19:36:45.250Z,7.27
2019-03-28T19:39:16.626Z,8.03
2019-03-28T19:41:44.544Z,5.00
2019-03-28T19:44:12.475Z,5.80
2019-03-28T19:46:41.802Z,5.50
2019-03-28T19:49:09.745Z,3.50
2019-03-28T19:51:37.570Z,4.97
2019-03-28T19:54:05.359Z,5.13
2019-03-28T19:56:35.961Z,5.40
2019-03-28T19:59:04.288Z,5.47
2019-03-28T20:01:32.070Z,4.37
2019-03-28T20:03:59.914Z,6.07
2019-03-28T20:06:27.681Z,4.70
2019-03-28T20:08:55.554Z,5.10
2019-03-28T20:11:23.518Z,6.10
2019-03-28T20:13:51.381Z,4.43
2019-03-28T20:16:19.237Z,6.03
2019-03-28T20:18:47.036Z,6.77
2019-03-28T20:21:14.844Z,5.40
2019-03-28T20:23:42.678Z,5.17
2019-03-28T20:26:10.452Z,5.17
2019-03-28T20:28:38.240Z,5.80
2019-03-28T20:31:06.030Z,6.67
2019-03-28T20:33:33.813Z,10.87
2019-03-28T20:36:19.914Z,7.33
2019-03-28T20:38:31.430Z,7.40
2019-03-28T20:40:59.212Z,5.70
2019-03-28T20:43:27.087Z,4.57
2019-03-28T20:45:54.980Z,5.23
2019-03-28T20:48:22.771Z,5.13
2019-03-28T20:50:50.526Z,4.77
2019-03-28T20:53:18.416Z,6.63
2019-03-28T20:55:49.187Z,6.43
2019-03-28T20:58:16.962Z,6.20
2019-03-28T21:00:46.225Z,6.27
2019-03-28T21:03:15.353Z,5.70
2019-03-28T21:05:43.679Z,4.80
2019-03-28T21:08:11.773Z,4.50
2019-03-28T21:10:39.608Z,5.00
2019-03-28T21:13:07.436Z,6.60
2019-03-28T21:15:35.231Z,5.50
2019-03-28T21:18:03.008Z,6.57
2019-03-28T21:20:30.807Z,6.83
2019-03-28T21:22:58.616Z,6.60
2019-03-28T21:25:29.462Z,8.10
2019-03-28T21:27:56.154Z,6.40
2019-03-28T21:30:26.954Z,6.30
2019-03-28T21:32:55.625Z,6.50
2019-03-28T21:35:23.352Z,6.47
2019-03-28T21:37:51.212Z,9.67
2019-03-28T21:40:19.009Z,9.70
2019-03-28T21:42:46.865Z,10.53
2019-03-28T21:45:15.098Z,8.33
2019-03-28T21:47:43.018Z,10.20
2019-03-28T21:50:10.847Z,7.63
2019-03-28T21:52:38.676Z,8.73
2019-03-28T21:55:07.829Z,6.83
2019-03-28T21:57:35.643Z,6.57
2019-03-28T22:00:06.135Z,6.87
2019-03-28T22:02:35.895Z,7.63
2019-03-28T22:05:04.020Z,8.37
2019-03-28T22:07:31.870Z,9.27
2019-03-28T22:09:59.727Z,7.20
2019-03-28T22:12:27.501Z,9.17
2019-03-28T22:14:55.287Z,8.97
2019-03-28T22:17:23.095Z,8.60
2019-03-28T22:19:51.661Z,7.17
2019-03-28T22:22:19.747Z,8.27
2019-03-28T22:24:47.576Z,8.40
2019-03-28T22:27:15.411Z,9.53
2019-03-28T22:29:43.255Z,11.27
2019-03-28T22:32:11.895Z,9.70
2019-03-28T22:34:42.648Z,9.00
2019-03-28T22:37:10.514Z,9.20
2019-03-28T22:39:38.987Z,8.20
2019-03-28T22:42:07.097Z,12.30
2019-03-28T22:44:34.959Z,13.00
2019-03-28T22:47:02.763Z,11.00
2019-03-28T22:49:31.271Z,10.23
2019-03-28T22:51:59.719Z,9.57
2019-03-28T22:54:27.571Z,9.47
2019-03-28T22:56:55.406Z,11.30
2019-03-28T22:59:23.206Z,11.50
2019-03-28T23:01:51.027Z,12.00
2019-03-28T23:04:18.800Z,11.80
2019-03-28T23:06:46.583Z,11.13
2019-03-28T23:09:14.379Z,11.50
2019-03-28T23:11:42.523Z,11.97
2019-03-28T23:14:10.624Z,11.07
2019-03-28T23:16:38.448Z,10.47
2019-03-28T23:19:06.250Z,9.60
2019-03-28T23:21:34.071Z,9.63
2019-03-28T23:24:01.936Z,9.13
2019-03-28T23:26:29.674Z,10.33
2019-03-28T23:28:57.499Z,9.07
2019-03-28T23:31:25.304Z,10.07
2019-03-28T23:33:53.092Z,11.23
2019-03-28T23:36:20.898Z,9.23
2019-03-28T23:38:48.688Z,10.13
2019-03-28T23:41:16.555Z,9.90
2019-03-28T23:43:44.391Z,9.03
2019-03-28T23:46:12.183Z,9.13
2019-03-28T23:48:40.168Z,10.47
2019-03-28T23:51:07.977Z,10.10
2019-03-28T23:53:35.790Z,10.93
2019-03-28T23:56:03.633Z,9.47
2019-03-28T23:58:31.414Z,11.77
